Time;durP1;ratioP1;P1;durP2;ratioP2;P2;SDS_P1;SDS_P2;PMS_P1;PMS_P2;Temp;Humidity;BMP_temperature;BMP_pressure;BME280_temperature;BME280_humidity;BME280_pressure;Samples;Min_cycle;Max_cycle;Signal;HPM_P1;HPM_P2
2022/12/25 00:00:14;;;;;;;34.05;17.33;;;;;;;7.08;100.00;101456.34;4953661;29;20048;-76
2022/12/25 00:02:47;;;;;;;34.72;17.25;;;;;;;7.07;100.00;101460.97;4951464;28;20055;-75
2022/12/25 00:05:15;;;;;;;33.13;16.20;;;;;;;6.96;100.00;101454.47;4951314;29;20070;-75
2022/12/25 00:07:43;;;;;;;32.40;16.02;;;;;;;6.96;100.00;101454.47;4953397;29;20483;-75
2022/12/25 00:10:11;;;;;;;28.65;15.98;;;;;;;7.10;100.00;101455.03;4953746;29;20418;-75
2022/12/25 00:12:39;;;;;;;31.38;15.63;;;;;;;7.30;100.00;101451.19;4953364;29;20043;-75
2022/12/25 00:15:07;;;;;;;36.22;16.70;;;;;;;7.20;100.00;101454.50;4951895;29;20486;-76
2022/12/25 00:17:35;;;;;;;34.75;16.33;;;;;;;7.17;100.00;101449.50;4953845;28;20482;-75
2022/12/25 00:20:03;;;;;;;31.08;16.30;;;;;;;7.11;100.00;101461.34;4953642;28;20482;-76
2022/12/25 00:22:31;;;;;;;37.72;17.10;;;;;;;7.15;100.00;101458.97;4956541;29;20051;-75
2022/12/25 00:24:59;;;;;;;37.83;17.98;;;;;;;6.91;100.00;101459.78;4956752;29;20570;-75
2022/12/25 00:27:31;;;;;;;34.33;15.77;;;;;;;6.78;100.00;101446.34;4956857;29;20055;-76
2022/12/25 00:29:59;;;;;;;36.05;17.65;;;;;;;6.84;100.00;101454.41;4956527;29;20498;-76
2022/12/25 00:32:27;;;;;;;34.85;17.30;;;;;;;6.78;100.00;101460.78;4956231;29;20058;-75
2022/12/25 00:34:55;;;;;;;29.95;16.08;;;;;;;6.85;100.00;101452.53;4956615;29;20070;-76
2022/12/25 00:37:23;;;;;;;31.20;16.33;;;;;;;6.70;100.00;101453.78;4957053;28;20521;-75
2022/12/25 00:39:51;;;;;;;33.22;15.93;;;;;;;6.56;100.00;101449.63;4956473;29;20049;-75
2022/12/25 00:42:19;;;;;;;31.02;15.32;;;;;;;6.58;100.00;101452.94;4939719;29;20054;-75
2022/12/25 00:44:48;;;;;;;30.42;15.48;;;;;;;6.59;100.00;101451.84;4956622;29;20395;-75
2022/12/25 00:47:17;;;;;;;31.77;14.75;;;;;;;6.49;100.00;101459.78;4956346;29;20069;-75
2022/12/25 00:49:45;;;;;;;32.13;16.02;;;;;;;6.49;100.00;101462.47;4956610;29;20410;-75
2022/12/25 00:52:13;;;;;;;32.60;16.33;;;;;;;6.44;100.00;101453.13;4956365;29;20062;-76
2022/12/25 00:54:41;;;;;;;31.88;15.40;;;;;;;6.36;100.00;101458.84;4956124;29;20067;-75
2022/12/25 00:57:09;;;;;;;35.28;17.00;;;;;;;6.31;100.00;101453.31;4956701;29;20043;-75
2022/12/25 00:59:37;;;;;;;32.10;16.48;;;;;;;6.25;100.00;101455.03;4956375;29;20035;-75
2022/12/25 01:02:23;;;;;;;31.88;16.50;;;;;;;6.13;100.00;101457.72;4956300;29;20066;-75
2022/12/25 01:04:55;;;;;;;28.50;15.63;;;;;;;6.14;100.00;101459.38;4947395;29;20062;-75
2022/12/25 01:07:25;;;;;;;31.65;16.05;;;;;;;6.08;100.00;101449.41;4956369;28;20047;-75
2022/12/25 01:12:42;;;;;;;35.30;16.08;;;;;;;6.13;100.00;101457.72;4955739;29;20051;-75
2022/12/25 01:15:11;;;;;;;30.85;16.80;;;;;;;5.98;100.00;101455.34;4955576;29;20055;-75
2022/12/25 01:17:39;;;;;;;29.02;15.70;;;;;;;5.96;100.00;101451.22;4956073;29;20047;-75
2022/12/25 01:20:08;;;;;;;31.23;17.08;;;;;;;5.81;100.00;101463.25;4956619;28;20062;-75
2022/12/25 01:22:36;;;;;;;31.77;15.82;;;;;;;5.71;100.00;101458.34;4955261;29;20048;-75
2022/12/25 01:25:05;;;;;;;31.48;15.65;;;;;;;5.65;100.00;101468.25;4955512;29;20120;-75
2022/12/25 01:27:33;;;;;;;27.00;15.35;;;;;;;5.61;100.00;101471.63;4955479;29;20482;-75
2022/12/25 01:30:01;;;;;;;30.65;16.17;;;;;;;5.61;100.00;101475.19;4955879;28;20051;-75
2022/12/25 01:32:29;;;;;;;34.38;16.08;;;;;;;5.72;100.00;101470.06;4954510;28;20043;-75
2022/12/25 01:34:58;;;;;;;28.80;16.13;;;;;;;5.78;100.00;101475.41;4955916;29;20505;-75
2022/12/25 01:37:26;;;;;;;31.92;15.90;;;;;;;5.74;100.00;101478.81;4954872;29;20509;-75
2022/12/25 01:39:54;;;;;;;33.78;18.17;;;;;;;5.84;100.00;101472.84;4955039;29;20525;-75
2022/12/25 01:42:25;;;;;;;33.42;17.02;;;;;;;5.81;100.00;101471.41;4955258;28;20059;-75
2022/12/25 01:44:53;;;;;;;31.38;15.65;;;;;;;5.87;100.00;101478.66;4938504;29;20055;-75
2022/12/25 01:47:21;;;;;;;28.42;15.45;;;;;;;5.79;100.00;101470.81;4955679;29;20043;-75
2022/12/25 01:49:50;;;;;;;28.60;15.90;;;;;;;5.68;100.00;101466.13;4954707;29;20070;-75
2022/12/25 01:52:22;;;;;;;34.00;17.15;;;;;;;5.62;100.00;101474.13;4954533;29;20042;-75
2022/12/25 01:55:05;;;;;;;27.83;16.88;;;;;;;5.72;100.00;101470.88;4955325;29;20414;-75
2022/12/25 01:57:36;;;;;;;32.45;16.38;;;;;;;5.82;100.00;101470.34;4955442;29;20059;-75
2022/12/25 02:00:06;;;;;;;31.13;16.27;;;;;;;5.81;100.00;101463.25;4955158;29;20050;-75
2022/12/25 02:02:35;;;;;;;30.35;15.65;;;;;;;5.74;100.00;101460.63;4954413;29;20490;-75
2022/12/25 02:05:27;;;;;;;32.00;15.98;;;;;;;5.68;100.00;101466.13;4954700;29;20048;-76
2022/12/25 02:08:00;;;;;;;29.58;15.25;;;;;;;5.64;100.00;101477.44;4945330;29;20051;-75
2022/12/25 02:10:28;;;;;;;29.15;15.38;;;;;;;5.50;100.00;101479.47;4954763;29;20055;-75
2022/12/25 02:12:56;;;;;;;35.05;17.02;;;;;;;5.57;100.00;101476.66;4937321;29;20074;-75
2022/12/25 02:15:32;;;;;;;27.80;14.32;;;;;;;5.58;100.00;101475.63;4953656;29;20058;-75
2022/12/25 02:18:09;;;;;;;28.40;15.40;;;;;;;5.42;100.00;101468.88;4954478;29;20059;-75
2022/12/25 02:20:56;;;;;;;26.85;15.05;;;;;;;5.46;100.00;101475.53;4955087;29;20051;-75
2022/12/25 02:23:29;;;;;;;25.88;14.85;;;;;;;5.40;100.00;101475.59;4954120;29;20055;-75
2022/12/25 02:26:11;;;;;;;25.80;15.15;;;;;;;5.50;100.00;101484.06;4954827;29;20048;-75
2022/12/25 02:28:51;;;;;;;28.67;14.57;;;;;;;5.48;100.00;101481.56;4969810;28;20055;-75
2022/12/25 02:31:26;;;;;;;26.65;15.02;;;;;;;5.55;100.00;101480.66;4969263;28;20138;-75
2022/12/25 02:34:10;;;;;;;31.77;16.33;;;;;;;5.73;100.00;101485.31;4969116;28;20055;-75
2022/12/25 02:36:54;;;;;;;26.70;14.88;;;;;;;5.76;100.00;101472.09;4954846;29;20062;-75
2022/12/25 02:39:59;;;;;;;30.73;15.32;;;;;;;5.76;100.00;101473.97;4954828;29;20070;-75
2022/12/25 03:08:29;;;;;;;25.92;13.27;;;;;;;5.17;100.00;101474.31;4954376;29;20046;-75
2022/12/25 03:13:53;;;;;;;26.98;14.68;;;;;;;5.24;100.00;101484.06;4954279;29;20050;-75
2022/12/25 03:27:32;;;;;;;27.80;13.80;;;;;;;5.07;100.00;101488.38;4953646;29;20066;-75
2022/12/25 03:32:57;;;;;;;22.33;12.75;;;;;;;5.01;100.00;101484.69;4953943;29;20043;-75
2022/12/25 03:35:45;;;;;;;26.17;13.25;;;;;;;4.97;100.00;101481.56;4953483;29;20055;-76
2022/12/25 04:38:13;;;;;;;22.13;11.63;;;;;;;5.32;100.00;101474.00;4956543;29;20055;-76
2022/12/25 04:40:41;;;;;;;23.55;13.70;;;;;;;5.32;100.00;101485.69;4956602;29;20074;-75
2022/12/25 04:43:09;;;;;;;23.27;13.02;;;;;;;5.28;100.00;101479.03;4956769;29;20044;-75
2022/12/25 04:45:37;;;;;;;22.17;12.77;;;;;;;5.30;100.00;101484.22;4939546;29;20063;-76
2022/12/25 04:48:05;;;;;;;24.35;13.10;;;;;;;5.23;100.00;101489.75;4956039;29;20051;-75
2022/12/25 04:50:33;;;;;;;23.00;12.38;;;;;;;5.32;100.00;101491.09;4955961;29;20051;-76
2022/12/25 04:53:01;;;;;;;23.08;13.38;;;;;;;5.20;100.00;101492.88;4956375;29;20047;-75
2022/12/25 04:55:28;;;;;;;23.80;11.60;;;;;;;5.25;100.00;101480.28;4956592;29;20509;-75
2022/12/25 04:57:56;;;;;;;22.35;11.63;;;;;;;5.23;100.00;101484.31;4957219;28;20062;-76
2022/12/25 05:00:24;;;;;;;22.25;12.40;;;;;;;5.17;100.00;101490.59;4956262;29;20054;-76
2022/12/25 05:02:52;;;;;;;22.05;12.77;;;;;;;5.06;100.00;101492.16;4955804;29;20139;-75
2022/12/25 05:05:20;;;;;;;21.48;11.88;;;;;;;5.11;100.00;101500.47;4955516;29;20054;-75
2022/12/25 05:07:48;;;;;;;21.83;12.32;;;;;;;5.24;100.00;101503.06;4955577;28;20078;-75
2022/12/25 05:10:16;;;;;;;25.13;12.55;;;;;;;5.25;100.00;101506.63;4955568;29;20056;-76
2022/12/25 05:12:44;;;;;;;26.15;12.68;;;;;;;5.32;100.00;101514.72;4955865;29;20047;-76
2022/12/25 05:15:12;;;;;;;20.83;11.85;;;;;;;5.38;100.00;101511.13;4956287;29;20050;-75
2022/12/25 05:17:40;;;;;;;26.40;11.23;;;;;;;5.50;100.00;101511.22;4956063;28;20055;-75
2022/12/25 05:20:08;;;;;;;22.10;11.55;;;;;;;5.61;100.00;101509.63;4955591;29;20105;-75
2022/12/25 05:22:36;;;;;;;20.75;11.43;;;;;;;5.61;100.00;101515.91;4955902;29;20051;-76
2022/12/25 05:25:04;;;;;;;24.52;12.23;;;;;;;5.65;100.00;101514.41;4956222;28;20055;-75
2022/12/25 05:27:32;;;;;;;25.67;12.30;;;;;;;5.58;100.00;101508.19;4955407;29;20059;-76
2022/12/25 05:29:59;;;;;;;18.70;11.20;;;;;;;5.72;100.00;101506.19;4954537;29;20058;-75
2022/12/25 05:32:27;;;;;;;19.75;11.25;;;;;;;5.84;100.00;101511.72;4938415;29;20410;-76
2022/12/25 05:34:55;;;;;;;21.23;10.95;;;;;;;5.63;100.00;101507.56;4970474;28;20054;-76
2022/12/25 05:37:23;;;;;;;20.13;11.50;;;;;;;5.44;100.00;101512.09;4955720;29;20131;-76
2022/12/25 05:39:51;;;;;;;17.92;10.70;;;;;;;5.44;100.00;101512.09;4955019;29;20051;-76
2022/12/25 05:42:19;;;;;;;19.15;10.63;;;;;;;5.52;100.00;101511.81;4955276;29;20039;-76
2022/12/25 05:44:46;;;;;;;21.15;11.02;;;;;;;5.43;100.00;101513.97;4955423;29;20062;-76
2022/12/25 05:47:14;;;;;;;22.08;11.10;;;;;;;5.38;100.00;101511.94;4955384;29;20063;-76
2022/12/25 05:49:42;;;;;;;18.17;10.93;;;;;;;5.37;100.00;101504.84;4955278;29;20066;-75
2022/12/25 05:52:10;;;;;;;21.60;11.40;;;;;;;5.28;100.00;101505.34;4955228;29;20047;-76
2022/12/25 05:54:38;;;;;;;19.33;10.60;;;;;;;5.35;100.00;101509.69;4955381;29;20409;-76
2022/12/25 05:57:06;;;;;;;21.17;10.52;;;;;;;5.39;100.00;101507.34;4954015;29;20426;-76
2022/12/25 05:59:34;;;;;;;22.33;11.50;;;;;;;5.44;100.00;101510.22;4955157;29;20051;-75
2022/12/25 06:02:02;;;;;;;22.33;11.00;;;;;;;5.44;100.00;101520.25;4953790;29;20047;-75
2022/12/25 06:04:30;;;;;;;18.58;10.45;;;;;;;5.47;100.00;101514.38;4937714;29;20055;-75
2022/12/25 06:06:58;;;;;;;22.20;11.48;;;;;;;5.60;100.00;101516.13;4937388;29;20051;-76
2022/12/25 06:09:26;;;;;;;22.20;12.40;;;;;;;5.71;100.00;101530.88;4954202;29;20405;-76
2022/12/25 06:11:54;;;;;;;21.40;11.25;;;;;;;5.74;100.00;101535.84;4954833;29;20506;-76
2022/12/25 06:14:22;;;;;;;19.38;11.00;;;;;;;5.80;100.00;101529.50;4955138;29;20043;-76
2022/12/25 06:16:51;;;;;;;18.58;10.65;;;;;;;6.02;100.00;101531.81;4954415;29;20052;-77
2022/12/25 06:19:20;;;;;;;23.63;11.52;;;;;;;6.07;100.00;101540.16;4953857;28;20066;-75
2022/12/25 06:21:52;;;;;;;21.08;10.85;;;;;;;6.15;100.00;101531.69;4954415;29;20043;-76
2022/12/25 06:24:22;;;;;;;22.00;10.38;;;;;;;6.24;100.00;101537.66;4954445;29;20051;-76
2022/12/25 06:26:50;;;;;;;20.38;10.88;;;;;;;6.13;100.00;101536.53;4954201;29;20043;-76
2022/12/25 06:29:18;;;;;;;19.02;10.15;;;;;;;6.24;100.00;101543.09;4954002;29;20066;-76
2022/12/25 06:31:46;;;;;;;15.98;9.60;;;;;;;6.30;100.00;101544.91;4953108;29;20115;-76
2022/12/25 06:34:15;;;;;;;18.58;10.52;;;;;;;6.28;100.00;101538.88;4956228;28;20050;-76
2022/12/25 06:36:43;;;;;;;17.67;10.02;;;;;;;6.39;100.00;101553.56;4941268;29;20075;-75
2022/12/25 06:39:11;;;;;;;19.20;10.60;;;;;;;6.32;100.00;101548.22;4952989;29;20063;-75
2022/12/25 06:41:39;;;;;;;19.63;10.20;;;;;;;6.36;100.00;101551.31;4952252;29;20512;-75
2022/12/25 06:44:09;;;;;;;20.92;11.02;;;;;;;6.42;100.00;101555.84;4953378;29;20058;-75
2022/12/25 06:46:39;;;;;;;14.45;8.80;;;;;;;6.41;100.00;101561.50;4954403;29;20398;-75
2022/12/25 06:49:08;;;;;;;18.80;10.50;;;;;;;6.40;100.00;101557.94;4953885;29;20387;-75
2022/12/25 06:51:36;;;;;;;22.73;10.55;;;;;;;6.46;100.00;101558.94;4953462;29;20055;-75
2022/12/25 06:54:11;;;;;;;18.00;9.75;;;;;;;6.59;100.00;101563.38;4953660;29;20490;-74
2022/12/25 06:56:39;;;;;;;26.75;10.13;;;;;;;6.61;100.00;101568.59;4954147;29;20054;-75
2022/12/25 06:59:09;;;;;;;18.42;9.75;;;;;;;6.57;100.00;101565.50;4953380;29;20054;-75
2022/12/25 07:01:51;;;;;;;19.17;10.15;;;;;;;6.48;100.00;101562.25;4953553;29;20410;-75
2022/12/25 07:04:30;;;;;;;20.88;9.82;;;;;;;6.60;100.00;101559.59;4952988;29;20078;-75
2022/12/25 07:06:59;;;;;;;21.35;10.30;;;;;;;6.74;100.00;101562.97;4953891;29;20074;-75
2022/12/25 07:09:37;;;;;;;18.00;9.95;;;;;;;6.79;100.00;101570.47;4954405;29;20059;-75
2022/12/25 07:12:18;;;;;;;16.83;10.32;;;;;;;6.65;100.00;101567.91;4954103;29;20059;-75
2022/12/25 07:14:48;;;;;;;16.55;9.63;;;;;;;6.66;100.00;101577.75;4953151;29;20406;-76
2022/12/25 07:17:17;;;;;;;17.75;9.63;;;;;;;6.73;100.00;101577.63;4953348;29;20395;-75
2022/12/25 07:19:46;;;;;;;15.82;9.38;;;;;;;6.75;100.00;101580.13;4953669;29;20047;-74
2022/12/25 07:22:15;;;;;;;19.45;10.30;;;;;;;6.78;100.00;101576.94;4953521;29;20043;-74
2022/12/25 07:24:43;;;;;;;16.85;9.98;;;;;;;6.84;100.00;101576.84;4952624;29;20047;-75
2022/12/25 07:27:11;;;;;;;18.88;10.10;;;;;;;6.88;100.00;101581.84;4952729;29;20052;-75
2022/12/25 07:29:39;;;;;;;16.70;9.40;;;;;;;6.90;100.00;101585.16;4952452;28;20047;-75
2022/12/25 07:32:07;;;;;;;17.60;10.10;;;;;;;6.96;100.00;101587.81;4948258;29;20043;-75
2022/12/25 07:34:35;;;;;;;17.15;9.45;;;;;;;6.96;100.00;101582.38;4957335;29;20078;-75
2022/12/25 07:37:03;;;;;;;17.67;9.45;;;;;;;7.08;100.00;101592.44;4956346;29;20055;-74
2022/12/25 07:39:32;;;;;;;13.35;8.18;;;;;;;7.07;100.00;101602.50;4957735;29;20054;-75
2022/12/25 07:42:00;;;;;;;17.45;10.88;;;;;;;7.15;100.00;101601.38;4956913;29;20043;-75
2022/12/25 07:44:28;;;;;;;18.30;10.13;;;;;;;7.19;100.00;101599.00;4957658;29;20043;-75
2022/12/25 07:46:56;;;;;;;22.20;11.25;;;;;;;7.17;100.00;101615.56;4971895;28;20058;-75
2022/12/25 07:49:24;;;;;;;15.60;9.63;;;;;;;7.26;100.00;101607.91;4956869;29;20498;-75
2022/12/25 07:51:52;;;;;;;16.10;9.35;;;;;;;7.31;100.00;101612.63;4957198;29;20047;-75
2022/12/25 07:54:20;;;;;;;16.38;9.82;;;;;;;7.36;100.00;101626.38;4956929;29;20046;-75
2022/12/25 07:56:51;;;;;;;16.63;9.73;;;;;;;7.35;100.00;101631.03;4956679;29;20474;-74
2022/12/25 07:59:19;;;;;;;17.40;10.05;;;;;;;7.48;100.00;101632.69;4956618;29;20055;-75
2022/12/25 08:01:49;;;;;;;21.45;11.77;;;;;;;7.42;100.00;101633.63;4957020;29;20055;-75
2022/12/25 08:04:17;;;;;;;19.27;11.75;;;;;;;7.60;100.00;101640.91;4956606;29;20459;-75
2022/12/25 08:06:45;;;;;;;20.30;11.85;;;;;;;7.66;100.00;101642.69;4956575;29;20509;-75
2022/12/25 08:09:13;;;;;;;21.52;11.65;;;;;;;7.75;100.00;101637.75;4956263;29;20055;-74
2022/12/25 08:11:45;;;;;;;18.33;12.15;;;;;;;7.80;100.00;101647.94;4956079;28;20066;-74
2022/12/25 08:14:14;;;;;;;21.85;12.30;;;;;;;7.82;100.00;101651.22;4957208;28;20058;-75
2022/12/25 08:16:43;;;;;;;17.45;11.15;;;;;;;7.71;100.00;101649.31;4955788;29;20039;-75
2022/12/25 08:19:13;;;;;;;15.45;10.15;;;;;;;7.80;100.00;101651.50;4956446;29;20418;-74
2022/12/25 08:21:41;;;;;;;16.20;9.90;;;;;;;7.96;100.00;101640.94;4956925;28;20509;-74
2022/12/25 08:24:09;;;;;;;19.88;11.35;;;;;;;8.15;100.00;101640.81;4955834;29;20058;-75
2022/12/25 08:26:37;;;;;;;20.85;11.95;;;;;;;8.14;100.00;101650.09;4955953;29;20414;-75
2022/12/25 08:29:05;;;;;;;20.13;10.90;;;;;;;8.33;100.00;101643.41;4954847;29;20437;-74
2022/12/25 08:31:33;;;;;;;22.55;11.13;;;;;;;8.40;100.00;101645.22;4955134;29;20054;-74
2022/12/25 08:34:06;;;;;;;19.10;10.65;;;;;;;8.67;100.00;101647.44;4937414;29;20530;-75
2022/12/25 08:36:34;;;;;;;20.60;12.25;;;;;;;8.78;99.96;101640.28;4954290;29;20055;-74
2022/12/25 08:39:03;;;;;;;24.65;13.05;;;;;;;8.77;100.00;101650.41;4955821;29;20406;-75
2022/12/25 08:41:31;;;;;;;20.77;11.70;;;;;;;8.87;100.00;101656.06;4955226;28;20379;-75
2022/12/25 08:43:59;;;;;;;23.65;12.13;;;;;;;8.93;99.76;101653.44;4955061;28;20051;-75
2022/12/25 08:46:27;;;;;;;19.10;11.80;;;;;;;9.06;99.21;101668.72;4956431;29;20371;-75
2022/12/25 08:48:55;;;;;;;23.13;12.48;;;;;;;9.17;98.74;101662.38;4956019;29;20383;-75
2022/12/25 08:51:25;;;;;;;21.58;11.70;;;;;;;9.02;98.95;101676.56;4954961;29;20055;-75
2022/12/25 08:53:58;;;;;;;21.77;11.48;;;;;;;9.02;100.00;101682.03;4955906;29;20058;-75
2022/12/25 08:56:27;;;;;;;17.77;10.32;;;;;;;9.10;100.00;101689.00;4955353;29;20382;-75
2022/12/25 08:58:55;;;;;;;18.85;10.70;;;;;;;9.27;99.16;101686.31;4955473;29;20414;-75
2022/12/25 09:01:23;;;;;;;20.40;10.48;;;;;;;9.27;99.92;101687.16;4955225;29;20047;-73
2022/12/25 09:03:51;;;;;;;17.05;10.48;;;;;;;9.33;100.00;101698.19;4938197;29;20055;-75
2022/12/25 09:06:19;;;;;;;21.52;11.27;;;;;;;9.39;99.19;101694.47;4955670;29;20143;-75
2022/12/25 09:08:47;;;;;;;17.60;10.13;;;;;;;9.23;98.53;101696.91;4955673;29;20075;-75
2022/12/25 09:11:18;;;;;;;15.90;10.35;;;;;;;9.32;98.15;101699.25;4955187;29;20055;-76
2022/12/25 09:13:47;;;;;;;18.58;10.50;;;;;;;9.37;100.00;101697.44;4954918;29;20074;-75
2022/12/25 09:16:19;;;;;;;18.45;10.27;;;;;;;9.50;98.73;101706.41;4955860;29;20536;-75
2022/12/25 09:18:47;;;;;;;17.70;9.35;;;;;;;9.53;97.78;101698.56;4955051;29;20058;-74
2022/12/25 09:21:17;;;;;;;15.23;9.40;;;;;;;9.46;97.99;101702.50;4954997;29;20491;-75
2022/12/25 09:23:44;;;;;;;18.10;10.05;;;;;;;9.07;99.89;101706.69;4953413;29;20051;-75
2022/12/25 09:26:15;;;;;;;18.33;9.48;;;;;;;9.32;99.33;101705.53;4954455;29;20051;-75
2022/12/25 09:28:44;;;;;;;18.17;10.18;;;;;;;9.68;98.91;101700.72;4954985;29;20059;-75
2022/12/25 09:31:20;;;;;;;18.77;11.90;;;;;;;9.91;98.30;101707.16;4939726;29;20047;-76
2022/12/25 09:33:50;;;;;;;20.88;11.30;;;;;;;10.17;97.59;101704.00;4970105;28;20062;-76
2022/12/25 09:36:35;;;;;;;19.15;10.85;;;;;;;10.25;95.75;101705.47;4954561;29;20486;-76
2022/12/25 09:39:08;;;;;;;17.55;10.07;;;;;;;10.50;94.27;101701.50;4956235;28;20055;-75
2022/12/25 09:41:38;;;;;;;14.63;10.07;;;;;;;10.42;94.91;101705.47;4954654;29;20043;-75
2022/12/25 09:44:21;;;;;;;18.23;11.02;;;;;;;10.70;95.73;101701.78;4953551;29;20055;-75
2022/12/25 09:46:53;;;;;;;14.90;9.85;;;;;;;10.68;93.31;101714.06;4954731;29;20039;-75
2022/12/25 09:49:37;;;;;;;21.80;11.07;;;;;;;10.84;93.66;101712.34;4953769;29;20047;-75
2022/12/25 09:52:17;;;;;;;16.30;10.02;;;;;;;10.74;93.23;101710.31;4972232;28;20043;-75
2022/12/25 09:55:14;;;;;;;15.40;10.32;;;;;;;10.89;93.76;101710.53;4954808;28;20063;-75
2022/12/25 09:57:53;;;;;;;20.95;11.90;;;;;;;11.19;93.06;101707.59;4948071;28;20043;-75
2022/12/25 10:00:32;;;;;;;16.65;10.63;;;;;;;11.23;92.33;101717.78;4954760;29;20055;-75
2022/12/25 10:03:32;;;;;;;17.40;10.25;;;;;;;11.32;91.17;101711.81;4954861;29;20047;-75
2022/12/25 10:06:21;;;;;;;19.05;10.85;;;;;;;11.38;91.06;101713.53;4956222;28;20050;-75
2022/12/25 10:09:12;;;;;;;17.08;10.10;;;;;;;11.28;90.60;101708.78;4963527;28;20059;-76
2022/12/25 10:12:02;;;;;;;15.77;9.77;;;;;;;11.24;91.99;101713.13;4967969;28;20063;-75
2022/12/25 10:14:48;;;;;;;18.48;10.68;;;;;;;11.26;92.30;101714.53;4954234;28;20054;-76
2022/12/25 10:17:40;;;;;;;17.13;10.55;;;;;;;11.62;92.59;101721.47;4966350;28;20102;-76
2022/12/25 10:20:21;;;;;;;15.98;9.77;;;;;;;11.66;89.77;101711.63;4953271;29;20051;-75
2022/12/25 10:22:53;;;;;;;14.25;9.05;;;;;;;11.52;88.83;101716.69;4953355;29;20047;-75
2022/12/25 10:25:23;;;;;;;17.38;9.45;;;;;;;11.67;89.57;101713.28;4953239;29;20047;-75
2022/12/25 10:28:02;;;;;;;15.10;9.52;;;;;;;11.81;89.39;101713.69;4953548;29;20058;-77
2022/12/25 10:30:31;;;;;;;15.32;8.98;;;;;;;11.84;89.37;101707.69;4953960;29;20058;-75
2022/12/25 10:32:59;;;;;;;15.85;9.73;;;;;;;11.90;86.91;101711.31;4951503;29;20074;-73
2022/12/25 10:35:29;;;;;;;17.85;9.60;;;;;;;11.87;87.88;101704.41;4944881;29;20063;-73
2022/12/25 10:38:13;;;;;;;16.83;9.15;;;;;;;11.48;90.77;101704.63;4947554;28;20058;-74
2022/12/25 10:41:04;;;;;;;14.60;9.43;;;;;;;11.66;90.62;101708.91;4951566;29;20098;-75
2022/12/25 10:43:57;;;;;;;16.00;9.20;;;;;;;11.94;88.54;101704.22;4943876;28;20059;-76
2022/12/25 10:46:28;;;;;;;18.75;10.93;;;;;;;12.09;88.67;101704.34;4951166;28;20043;-73
2022/12/25 10:49:01;;;;;;;19.92;10.18;;;;;;;12.17;87.72;101699.50;4949998;29;20482;-72
2022/12/25 10:51:33;;;;;;;17.85;9.52;;;;;;;12.22;86.06;101696.78;4948372;28;20074;-71
2022/12/25 10:54:17;;;;;;;19.38;10.23;;;;;;;12.21;86.35;101692.38;4949912;29;20521;-74
2022/12/25 10:57:01;;;;;;;16.25;9.05;;;;;;;12.41;85.08;101688.13;4953737;29;20042;-74
2022/12/25 10:59:34;;;;;;;15.20;8.75;;;;;;;12.49;84.38;101684.88;4953661;29;20394;-71
2022/12/25 11:02:27;;;;;;;15.27;9.32;;;;;;;12.57;84.91;101694.53;4952293;29;20494;-75
2022/12/25 11:05:05;;;;;;;12.85;8.10;;;;;;;12.67;82.95;101685.50;4951711;28;20058;-75
2022/12/25 11:07:50;;;;;;;15.80;8.23;;;;;;;12.74;84.42;101686.09;4944013;29;20051;-74
2022/12/25 11:10:37;;;;;;;16.13;8.43;;;;;;;12.93;82.05;101682.88;4954144;29;20055;-74
2022/12/25 11:13:06;;;;;;;16.63;9.32;;;;;;;12.99;81.71;101679.03;4953379;29;20399;-74
2022/12/25 11:16:06;;;;;;;13.70;8.90;;;;;;;12.82;81.14;101677.34;4953858;29;20056;-75
2022/12/25 11:18:48;;;;;;;14.48;8.43;;;;;;;13.02;81.20;101673.03;4953469;29;20071;-75
2022/12/25 11:21:24;;;;;;;12.38;7.72;;;;;;;13.02;80.50;101670.28;4953862;29;20055;-75
2022/12/25 11:24:04;;;;;;;12.70;7.80;;;;;;;13.11;82.06;101665.88;4968759;28;20356;-74
2022/12/25 11:26:49;;;;;;;13.15;8.30;;;;;;;13.25;80.57;101651.66;4953487;29;20051;-75
2022/12/25 11:29:23;;;;;;;16.42;8.75;;;;;;;13.25;80.38;101662.66;4953934;29;20482;-75
2022/12/25 11:31:54;;;;;;;15.90;9.13;;;;;;;13.22;80.46;101646.69;4953290;29;20058;-75
2022/12/25 11:34:39;;;;;;;16.33;8.82;;;;;;;13.25;80.40;101657.16;4953378;29;20058;-75
2022/12/25 11:37:15;;;;;;;11.82;7.88;;;;;;;12.95;80.44;101658.72;4953764;29;20055;-75
2022/12/25 11:39:43;;;;;;;15.77;8.65;;;;;;;12.90;82.86;101668.59;4953254;29;20078;-75
2022/12/25 11:42:23;;;;;;;13.98;8.25;;;;;;;12.98;81.77;101658.16;4953559;29;20392;-75
2022/12/25 11:44:54;;;;;;;14.20;7.88;;;;;;;13.11;82.24;101657.63;4953082;29;20055;-75
2022/12/25 11:47:31;;;;;;;21.00;7.30;;;;;;;13.09;81.16;101662.59;4953131;29;20058;-75
2022/12/25 11:50:05;;;;;;;12.68;7.93;;;;;;;13.28;80.35;101656.59;4953044;29;20047;-75
2022/12/25 11:52:36;;;;;;;11.65;8.10;;;;;;;13.41;79.99;101642.31;4968453;28;20047;-75
2022/12/25 11:55:19;;;;;;;11.88;7.55;;;;;;;13.54;77.26;101642.94;4953471;29;20067;-75
2022/12/25 11:57:52;;;;;;;15.68;7.97;;;;;;;13.56;76.58;101640.72;4953595;29;20052;-75
2022/12/25 12:00:29;;;;;;;12.60;7.95;;;;;;;13.45;76.95;101637.13;4953036;29;20117;-75
2022/12/25 12:03:05;;;;;;;13.70;8.60;;;;;;;13.37;75.89;101635.72;4953479;29;20047;-76
2022/12/25 12:05:41;;;;;;;17.52;10.07;;;;;;;13.50;77.31;101633.56;4952882;29;20055;-75
2022/12/25 12:08:10;;;;;;;21.27;13.65;;;;;;;13.54;76.84;101629.19;4953085;29;20055;-75
2022/12/25 12:10:59;;;;;;;17.75;10.43;;;;;;;13.60;76.43;101636.31;4953918;28;20055;-75
2022/12/25 12:13:44;;;;;;;14.70;8.40;;;;;;;13.73;76.25;101637.69;4952034;29;20055;-75
2022/12/25 12:16:12;;;;;;;13.98;9.63;;;;;;;13.48;76.52;101638.53;4954199;28;20565;-76
2022/12/25 12:18:40;;;;;;;17.38;10.93;;;;;;;13.48;77.60;101627.53;4956940;29;20418;-75
2022/12/25 12:21:17;;;;;;;17.42;8.43;;;;;;;13.36;76.61;101636.81;4941620;28;20063;-75
2022/12/25 12:24:06;;;;;;;14.35;8.88;;;;;;;13.24;78.62;101623.31;4956395;29;20051;-75
2022/12/25 12:26:37;;;;;;;13.80;8.63;;;;;;;13.25;77.43;101619.47;4956894;29;20055;-75
2022/12/25 12:29:22;;;;;;;15.13;9.10;;;;;;;12.68;80.40;101621.25;4956413;29;20051;-75
2022/12/25 12:31:51;;;;;;;14.60;9.52;;;;;;;13.00;80.47;101615.59;4956451;29;20063;-75
2022/12/25 12:34:39;;;;;;;16.38;9.52;;;;;;;13.24;79.52;101619.78;4956769;29;20544;-75
2022/12/25 12:37:21;;;;;;;19.75;10.52;;;;;;;13.10;79.25;101617.53;4956293;29;20050;-75
2022/12/25 12:39:53;;;;;;;20.77;11.60;;;;;;;13.13;78.79;101621.66;4956182;29;20051;-75
2022/12/25 12:42:26;;;;;;;17.02;9.70;;;;;;;13.26;78.84;101610.13;4956094;29;20055;-75
2022/12/25 12:45:05;;;;;;;14.75;9.35;;;;;;;13.39;79.14;101617.03;4956635;29;20073;-75
2022/12/25 12:47:48;;;;;;;15.40;9.57;;;;;;;12.98;79.55;101627.94;4956141;29;20059;-75
2022/12/25 12:50:36;;;;;;;16.83;10.18;;;;;;;12.96;80.06;101624.66;4956111;29;20070;-75
2022/12/25 12:53:26;;;;;;;19.75;11.77;;;;;;;12.90;80.42;101618.28;4939212;29;20046;-75
2022/12/25 12:55:54;;;;;;;15.73;10.02;;;;;;;12.99;79.95;101633.16;4956456;29;20047;-75
2022/12/25 12:58:34;;;;;;;17.27;10.88;;;;;;;13.13;79.57;101625.25;4956281;29;20055;-77
2022/12/25 13:01:08;;;;;;;22.85;12.55;;;;;;;12.96;80.24;101624.66;4956067;29;20498;-75
2022/12/25 13:03:58;;;;;;;19.08;10.32;;;;;;;13.11;80.66;101623.84;4956007;29;20058;-75
2022/12/25 13:06:38;;;;;;;16.95;10.40;;;;;;;13.07;79.79;101623.56;4955602;29;20384;-75
2022/12/25 13:09:41;;;;;;;18.17;11.35;;;;;;;12.74;81.11;101631.16;4955849;29;20062;-75
2022/12/25 13:12:11;;;;;;;19.45;11.15;;;;;;;12.61;81.64;101627.81;4943128;29;20402;-75
2022/12/25 13:14:45;;;;;;;18.20;10.18;;;;;;;12.72;82.46;101630.59;4938789;29;20043;-75
2022/12/25 13:17:24;;;;;;;17.20;10.23;;;;;;;12.82;82.00;101638.91;4955950;29;20405;-75
2022/12/25 13:19:58;;;;;;;19.13;9.68;;;;;;;12.73;83.54;101630.34;4955993;29;20058;-75
2022/12/25 13:22:33;;;;;;;16.45;10.05;;;;;;;12.70;82.96;101633.63;4955943;29;20059;-75